createdAt,value
2018-11-14T00:00:29.312Z,10.30
2018-11-14T00:02:59.369Z,10.30
2018-11-14T00:05:28.775Z,10.30
2018-11-14T00:07:58.019Z,10.40
2018-11-14T00:10:27.500Z,10.30
2018-11-14T00:12:56.838Z,10.30
2018-11-14T00:15:26.633Z,10.30
2018-11-14T00:17:56.084Z,10.40
2018-11-14T00:20:25.524Z,10.30
2018-11-14T00:22:54.838Z,10.20
2018-11-14T00:25:24.827Z,10.20
2018-11-14T00:27:54.178Z,10.20
2018-11-14T00:30:25.530Z,10.20
2018-11-14T00:32:54.946Z,10.20
2018-11-14T00:35:24.311Z,10.20
2018-11-14T00:37:53.539Z,10.20
2018-11-14T00:40:22.763Z,10.10
2018-11-14T00:42:52.225Z,10.10
2018-11-14T00:45:22.387Z,10.10
2018-11-14T00:47:52.764Z,10.10
2018-11-14T00:50:22.090Z,10.10
2018-11-14T00:52:51.568Z,10.10
2018-11-14T00:55:22.023Z,10.00
2018-11-14T00:57:52.393Z,10.10
2018-11-14T01:00:23.867Z,10.00
2018-11-14T01:02:53.729Z,10.00
2018-11-14T01:05:23.061Z,10.10
2018-11-14T01:07:52.185Z,10.10
2018-11-14T01:10:22.295Z,10.10
2018-11-14T01:12:52.136Z,10.10
2018-11-14T01:15:22.599Z,10.10
2018-11-14T01:17:51.897Z,10.10
2018-11-14T01:20:22.359Z,10.10
2018-11-14T01:22:51.812Z,10.00
2018-11-14T01:25:21.317Z,10.10
2018-11-14T01:27:50.873Z,10.10
2018-11-14T01:30:21.399Z,10.10
2018-11-14T01:32:51.325Z,10.00
2018-11-14T01:35:20.869Z,10.00
2018-11-14T01:37:50.271Z,10.00
2018-11-14T01:40:22.926Z,10.00
2018-11-14T01:42:56.375Z,10.00
2018-11-14T01:45:26.123Z,10.00
2018-11-14T01:47:55.529Z,10.00
2018-11-14T01:50:24.795Z,10.00
2018-11-14T01:52:54.013Z,10.00
2018-11-14T01:55:23.451Z,10.00
2018-11-14T01:57:52.979Z,10.00
2018-11-14T02:00:24.410Z,10.10
2018-11-14T02:02:53.836Z,10.10
2018-11-14T02:05:23.572Z,10.00
2018-11-14T02:07:53.135Z,10.00
2018-11-14T02:10:22.467Z,10.00
2018-11-14T02:12:51.734Z,10.00
2018-11-14T02:15:22.298Z,10.00
2018-11-14T02:17:51.961Z,10.00
2018-11-14T02:20:21.477Z,10.00
2018-11-14T02:22:50.755Z,10.00
2018-11-14T02:25:20.226Z,10.00
2018-11-14T02:27:49.591Z,10.00
2018-11-14T02:30:20.561Z,9.90
2018-11-14T02:32:49.909Z,9.90
2018-11-14T02:35:19.255Z,9.80
2018-11-14T02:37:48.970Z,9.80
2018-11-14T02:40:19.603Z,9.70
2018-11-14T02:42:49.065Z,9.70
2018-11-14T02:45:18.465Z,9.70
2018-11-14T02:47:47.774Z,9.60
2018-11-14T02:50:17.909Z,9.50
2018-11-14T02:52:47.348Z,9.50
2018-11-14T02:55:17.357Z,9.50
2018-11-14T02:57:46.983Z,9.50
2018-11-14T03:00:19.038Z,9.50
2018-11-14T03:02:48.502Z,9.40
2018-11-14T03:05:18.197Z,9.50
2018-11-14T03:07:47.615Z,9.40
2018-11-14T03:10:18.965Z,9.40
2018-11-14T03:12:48.399Z,9.40
2018-11-14T03:15:21.522Z,9.40
2018-11-14T03:17:50.811Z,9.30
2018-11-14T03:20:21.178Z,9.30
2018-11-14T03:22:50.575Z,9.30
2018-11-14T03:25:19.909Z,9.40
2018-11-14T03:27:49.340Z,9.40
2018-11-14T03:30:19.307Z,9.30
2018-11-14T03:32:49.042Z,9.40
2018-11-14T03:35:18.417Z,9.30
2018-11-14T03:37:47.729Z,9.30
2018-11-14T03:40:17.643Z,9.30
2018-11-14T03:42:46.913Z,9.30
2018-11-14T03:45:16.636Z,9.30
2018-11-14T03:47:46.212Z,9.30
2018-11-14T03:50:15.511Z,9.30
2018-11-14T03:52:44.825Z,9.10
2018-11-14T03:55:14.184Z,9.30
2018-11-14T03:57:43.505Z,9.20
2018-11-14T04:00:16.386Z,9.20
2018-11-14T04:02:46.641Z,9.20
2018-11-14T04:05:15.843Z,9.20
2018-11-14T04:07:45.131Z,9.20
2018-11-14T04:10:15.074Z,9.20
2018-11-14T04:12:44.612Z,9.20
2018-11-14T04:15:15.043Z,9.20
2018-11-14T04:17:44.535Z,9.20
2018-11-14T04:20:15.969Z,9.20
2018-11-14T04:22:45.602Z,9.20
2018-11-14T04:25:19.579Z,9.20
2018-11-14T04:27:49.399Z,9.30
2018-11-14T04:30:20.067Z,9.30
2018-11-14T04:32:49.415Z,9.30
2018-11-14T04:35:19.523Z,9.30
2018-11-14T04:37:48.855Z,9.30
2018-11-14T04:40:21.402Z,9.30
2018-11-14T04:42:50.729Z,9.30
2018-11-14T04:45:26.275Z,9.40
2018-11-14T04:47:56.011Z,9.40
2018-11-14T04:50:26.727Z,9.40
2018-11-14T04:52:56.532Z,9.40
2018-11-14T04:55:26.712Z,9.40
2018-11-14T04:57:55.956Z,9.50
2018-11-14T05:00:26.110Z,9.50
2018-11-14T05:02:55.367Z,9.50
2018-11-14T05:05:25.277Z,9.50
2018-11-14T05:07:54.490Z,9.50
2018-11-14T05:10:25.069Z,9.60
2018-11-14T05:12:54.809Z,9.50
2018-11-14T05:15:25.038Z,9.50
2018-11-14T05:17:54.828Z,9.50
2018-11-14T05:20:24.145Z,9.50
2018-11-14T05:22:53.842Z,9.50
2018-11-14T05:25:23.099Z,9.50
2018-11-14T05:27:52.474Z,9.50
2018-11-14T05:30:22.765Z,9.40
2018-11-14T05:32:52.588Z,9.50
2018-11-14T05:35:21.713Z,9.50
2018-11-14T05:37:51.242Z,9.60
2018-11-14T05:40:21.970Z,9.50
2018-11-14T05:42:51.888Z,9.60
2018-11-14T05:45:22.509Z,9.60
2018-11-14T05:47:52.349Z,9.60
2018-11-14T05:50:22.699Z,9.50
2018-11-14T05:52:52.018Z,9.40
2018-11-14T05:55:21.274Z,9.30
2018-11-14T05:57:50.622Z,9.40
2018-11-14T06:00:30.869Z,9.40
2018-11-14T06:03:01.277Z,9.40
2018-11-14T06:05:30.528Z,9.40
2018-11-14T06:07:59.533Z,9.30
2018-11-14T06:10:28.594Z,9.30
2018-11-14T06:12:58.546Z,9.30
2018-11-14T06:15:27.714Z,9.30
2018-11-14T06:17:57.674Z,9.10
2018-11-14T06:20:26.893Z,9.20
2018-11-14T06:22:56.282Z,9.10
2018-11-14T06:25:41.172Z,9.20
2018-11-14T06:28:11.630Z,9.10
2018-11-14T06:30:42.709Z,9.20
2018-11-14T06:33:12.402Z,9.20
2018-11-14T06:35:41.936Z,9.10
2018-11-14T06:38:11.671Z,9.10
2018-11-14T06:40:41.452Z,9.10
2018-11-14T06:43:11.566Z,9.10
2018-11-14T06:45:42.143Z,9.10
2018-11-14T06:48:12.197Z,9.20
2018-11-14T06:50:42.093Z,9.10
2018-11-14T06:53:12.139Z,9.10
2018-11-14T06:55:41.817Z,9.10
2018-11-14T06:58:11.817Z,9.10
2018-11-14T07:00:41.631Z,9.10
2018-11-14T07:03:11.289Z,9.10
2018-11-14T07:05:41.125Z,9.00
2018-11-14T07:08:10.697Z,9.10
2018-11-14T07:10:40.330Z,9.10
2018-11-14T07:13:10.912Z,9.10
2018-11-14T07:15:41.364Z,9.10
2018-11-14T07:18:11.995Z,9.00
2018-11-14T07:20:43.391Z,8.90
2018-11-14T07:23:13.293Z,8.90
2018-11-14T07:25:43.251Z,8.90
2018-11-14T07:28:13.209Z,8.90
2018-11-14T07:30:43.076Z,9.00
2018-11-14T07:33:12.980Z,9.00
2018-11-14T07:35:42.557Z,9.00
2018-11-14T07:38:21.129Z,9.10
2018-11-14T07:40:51.762Z,9.10
2018-11-14T07:43:21.371Z,9.20
2018-11-14T07:45:51.647Z,9.20
2018-11-14T07:48:22.085Z,9.20
2018-11-14T07:50:52.189Z,9.20
2018-11-14T07:53:22.136Z,9.30
2018-11-14T07:55:53.045Z,9.30
2018-11-14T07:58:22.441Z,9.40
2018-11-14T08:00:52.551Z,9.50
2018-11-14T08:03:22.445Z,9.60
2018-11-14T08:05:52.487Z,9.70
2018-11-14T08:08:22.286Z,9.80
2018-11-14T08:10:52.181Z,9.90
2018-11-14T08:13:22.935Z,9.90
2018-11-14T08:15:54.593Z,10.00
2018-11-14T08:18:24.894Z,10.10
2018-11-14T08:20:54.834Z,10.10
2018-11-14T08:23:24.864Z,10.20
2018-11-14T08:25:54.855Z,10.30
2018-11-14T08:28:24.829Z,10.40
2018-11-14T08:30:54.613Z,10.50
2018-11-14T08:33:24.496Z,10.60
2018-11-14T08:35:54.627Z,10.60
2018-11-14T08:38:24.576Z,10.60
2018-11-14T08:40:54.502Z,10.70
2018-11-14T08:43:24.747Z,10.80
2018-11-14T08:45:54.916Z,10.90
2018-11-14T08:48:24.710Z,11.00
2018-11-14T08:50:54.530Z,11.00
2018-11-14T08:53:24.520Z,11.10
2018-11-14T08:55:54.668Z,11.20
2018-11-14T08:58:25.162Z,11.30
2018-11-14T09:00:54.806Z,11.30
2018-11-14T09:03:24.596Z,11.30
2018-11-14T09:05:55.380Z,11.40
2018-11-14T09:08:24.836Z,11.20
2018-11-14T09:10:54.816Z,11.50
2018-11-14T09:13:24.567Z,11.50
2018-11-14T09:15:54.403Z,11.70
2018-11-14T09:18:24.588Z,11.70
2018-11-14T09:20:54.531Z,11.70
2018-11-14T09:23:24.456Z,11.80
2018-11-14T09:25:54.294Z,11.90
2018-11-14T09:28:24.003Z,12.00
2018-11-14T09:30:53.734Z,12.00
2018-11-14T09:33:23.574Z,12.10
2018-11-14T09:35:53.329Z,12.20
2018-11-14T09:38:22.841Z,12.30
2018-11-14T09:40:52.382Z,12.40
2018-11-14T09:43:21.862Z,12.50
2018-11-14T09:45:52.158Z,12.60
2018-11-14T09:48:22.216Z,12.70
2018-11-14T09:50:52.027Z,12.80
2018-11-14T09:53:22.189Z,13.00
2018-11-14T09:55:52.161Z,13.10
2018-11-14T09:58:22.018Z,13.00
2018-11-14T10:00:52.174Z,13.10
2018-11-14T10:03:21.986Z,13.00
2018-11-14T10:05:51.876Z,13.10
2018-11-14T10:08:22.124Z,13.20
2018-11-14T10:10:52.096Z,13.10
2018-11-14T10:13:22.113Z,13.20
2018-11-14T10:15:52.196Z,13.30
2018-11-14T10:18:22.120Z,13.20
2018-11-14T10:20:52.202Z,13.40
2018-11-14T10:23:22.042Z,13.40
2018-11-14T10:25:52.014Z,13.30
2018-11-14T10:28:22.089Z,13.40
2018-11-14T10:30:51.755Z,13.40
2018-11-14T10:33:21.645Z,13.40
2018-11-14T10:35:51.348Z,13.50
2018-11-14T10:38:20.880Z,13.60
2018-11-14T10:40:50.329Z,13.50
2018-11-14T10:43:19.934Z,13.60
2018-11-14T10:45:50.170Z,13.90
2018-11-14T10:48:20.220Z,13.80
2018-11-14T10:50:51.705Z,13.70
2018-11-14T10:53:21.513Z,13.90
2018-11-14T10:55:51.415Z,14.00
2018-11-14T10:58:21.166Z,14.10
2018-11-14T11:00:56.464Z,14.10
2018-11-14T11:03:32.086Z,14.10
2018-11-14T11:06:07.214Z,14.30
2018-11-14T11:08:42.194Z,14.40
2018-11-14T11:11:22.343Z,14.40
2018-11-14T11:14:54.565Z,14.50
2018-11-14T11:18:32.304Z,14.40
2018-11-14T11:21:02.204Z,14.40
2018-11-14T11:23:32.079Z,14.50
2018-11-14T11:26:02.012Z,14.60
2018-11-14T11:28:32.129Z,14.60
2018-11-14T11:31:02.184Z,14.60
2018-11-14T11:33:32.379Z,14.90
2018-11-14T11:36:02.250Z,15.00
2018-11-14T11:38:31.956Z,15.10
2018-11-14T11:41:01.995Z,14.90
2018-11-14T11:43:32.073Z,14.80
2018-11-14T11:46:02.159Z,14.90
2018-11-14T11:48:32.003Z,15.10
2018-11-14T11:51:01.794Z,14.90
2018-11-14T11:53:31.751Z,15.00
2018-11-14T11:56:01.889Z,15.00
2018-11-14T11:58:32.004Z,15.10
2018-11-14T12:01:01.692Z,15.10
2018-11-14T12:03:31.695Z,15.20
2018-11-14T12:06:02.040Z,15.20
2018-11-14T12:08:31.306Z,15.10
2018-11-14T12:11:00.905Z,15.00
2018-11-14T12:13:30.450Z,15.10
2018-11-14T12:16:00.243Z,15.20
2018-11-14T12:18:29.943Z,15.20
2018-11-14T12:21:06.508Z,15.20
2018-11-14T12:23:36.073Z,15.10
2018-11-14T12:26:05.570Z,15.20
2018-11-14T12:28:34.909Z,15.10
2018-11-14T12:31:04.833Z,15.10
2018-11-14T12:33:34.988Z,15.10
2018-11-14T12:36:04.801Z,15.10
2018-11-14T12:38:34.475Z,15.20
2018-11-14T12:41:04.568Z,15.20
2018-11-14T12:43:34.487Z,15.20
2018-11-14T12:46:04.416Z,15.30
2018-11-14T12:48:34.390Z,15.20
2018-11-14T12:51:04.362Z,15.40
2018-11-14T12:53:35.131Z,15.40
2018-11-14T12:56:04.842Z,15.40
2018-11-14T12:58:35.070Z,15.50
2018-11-14T13:01:05.146Z,15.50
2018-11-14T13:03:34.546Z,15.40
2018-11-14T13:06:04.172Z,15.50
2018-11-14T13:08:33.749Z,15.40
2018-11-14T13:11:03.360Z,15.20
2018-11-14T13:13:37.829Z,15.40
2018-11-14T13:16:07.236Z,15.30
2018-11-14T13:18:37.070Z,15.20
2018-11-14T13:21:07.392Z,14.90
2018-11-14T13:23:37.582Z,15.00
2018-11-14T13:26:07.434Z,15.10
2018-11-14T13:28:37.515Z,15.00
2018-11-14T13:31:07.421Z,14.80
2018-11-14T13:33:37.078Z,15.00
2018-11-14T13:36:07.006Z,15.00
2018-11-14T13:38:36.572Z,14.80
2018-11-14T13:41:06.372Z,14.90
2018-11-14T13:43:35.766Z,14.90
2018-11-14T13:46:05.752Z,14.70
2018-11-14T13:48:35.409Z,14.70
2018-11-14T13:51:05.069Z,14.80
2018-11-14T13:53:34.670Z,14.80
2018-11-14T13:56:04.488Z,14.80
2018-11-14T13:58:34.406Z,14.80
2018-11-14T14:01:04.664Z,14.90
2018-11-14T14:03:34.476Z,15.00
2018-11-14T14:06:04.665Z,15.00
2018-11-14T14:08:34.746Z,15.10
2018-11-14T14:11:04.738Z,15.20
2018-11-14T14:13:34.837Z,15.20
2018-11-14T14:16:04.819Z,15.20
2018-11-14T14:18:34.744Z,15.10
2018-11-14T14:21:04.708Z,15.00
2018-11-14T14:23:34.573Z,15.00
2018-11-14T14:26:04.633Z,15.10
2018-11-14T14:28:34.361Z,15.10
2018-11-14T14:31:04.502Z,15.10
2018-11-14T14:33:34.364Z,14.90
2018-11-14T14:36:03.952Z,14.90
2018-11-14T14:38:33.579Z,14.90
2018-11-14T14:41:03.105Z,14.90
2018-11-14T14:43:32.870Z,15.00
2018-11-14T14:46:02.458Z,14.60
2018-11-14T14:48:32.194Z,14.70
2018-11-14T14:51:02.018Z,14.50
2018-11-14T14:53:31.871Z,14.60
2018-11-14T14:56:01.628Z,14.50
2018-11-14T14:58:31.685Z,14.60
2018-11-14T15:01:01.401Z,14.50
2018-11-14T15:03:31.286Z,14.50
2018-11-14T15:06:01.017Z,14.40
2018-11-14T15:08:30.424Z,14.40
2018-11-14T15:10:59.867Z,14.40
2018-11-14T15:13:29.775Z,14.50
2018-11-14T15:15:59.283Z,14.40
2018-11-14T15:18:29.001Z,14.50
2018-11-14T15:20:58.695Z,14.50
2018-11-14T15:23:28.485Z,14.50
2018-11-14T15:25:57.891Z,14.50
2018-11-14T15:28:27.388Z,14.40
2018-11-14T15:30:56.485Z,14.40
2018-11-14T15:33:25.851Z,14.50
2018-11-14T15:35:55.090Z,14.50
2018-11-14T15:38:24.380Z,14.50
2018-11-14T15:40:53.516Z,14.50
2018-11-14T15:43:22.737Z,14.40
2018-11-14T15:45:51.848Z,14.40
2018-11-14T15:48:20.942Z,14.40
2018-11-14T15:50:50.303Z,14.40
2018-11-14T15:53:19.407Z,14.40
2018-11-14T15:55:48.670Z,14.40
2018-11-14T15:58:17.837Z,14.30
2018-11-14T16:00:46.990Z,14.40
2018-11-14T16:03:16.056Z,14.40
2018-11-14T16:05:45.407Z,14.40
2018-11-14T16:08:14.458Z,14.30
2018-11-14T16:10:43.652Z,14.00
2018-11-14T16:13:12.873Z,13.90
2018-11-14T16:15:45.182Z,13.80
2018-11-14T16:18:14.413Z,13.80
2018-11-14T16:20:43.517Z,13.90
2018-11-14T16:23:12.753Z,13.90
2018-11-14T16:25:41.899Z,13.90
2018-11-14T16:28:11.127Z,13.90
2018-11-14T16:30:40.317Z,13.90
2018-11-14T16:33:09.615Z,13.80
2018-11-14T16:35:39.040Z,13.80
2018-11-14T16:38:08.323Z,13.90
2018-11-14T16:40:37.574Z,13.80
2018-11-14T16:43:07.845Z,13.70
2018-11-14T16:45:38.314Z,13.60
2018-11-14T16:48:07.537Z,13.50
2018-11-14T16:50:36.704Z,13.50
2018-11-14T16:53:09.415Z,13.50
2018-11-14T16:55:38.690Z,13.50
2018-11-14T16:58:07.970Z,13.50
2018-11-14T17:00:37.152Z,13.40
2018-11-14T17:03:06.531Z,13.40
2018-11-14T17:05:35.657Z,13.50
2018-11-14T17:08:04.971Z,13.50
2018-11-14T17:10:34.082Z,13.50
2018-11-14T17:13:03.352Z,13.60
2018-11-14T17:15:32.637Z,13.60
2018-11-14T17:18:01.872Z,13.60
2018-11-14T17:20:31.031Z,13.60
2018-11-14T17:23:00.276Z,13.70
2018-11-14T17:25:29.448Z,13.60
2018-11-14T17:27:58.679Z,13.50
2018-11-14T17:30:28.449Z,13.40
2018-11-14T17:32:57.641Z,13.30
2018-11-14T17:35:26.733Z,13.20
2018-11-14T17:37:56.044Z,13.10
2018-11-14T17:40:26.393Z,13.00
2018-11-14T17:42:55.627Z,12.80
2018-11-14T17:45:27.591Z,12.80
2018-11-14T17:47:57.336Z,12.70
2018-11-14T17:50:30.264Z,12.60
2018-11-14T17:53:00.249Z,12.60
2018-11-14T17:55:30.145Z,12.60
2018-11-14T17:57:59.499Z,12.60
2018-11-14T18:00:30.023Z,12.50
2018-11-14T18:02:59.357Z,12.40
2018-11-14T18:05:29.707Z,12.40
2018-11-14T18:07:58.851Z,12.40
2018-11-14T18:10:29.371Z,12.40
2018-11-14T18:12:59.641Z,12.40
2018-11-14T18:15:28.795Z,12.40
2018-11-14T18:17:58.288Z,12.40
2018-11-14T18:20:29.774Z,12.30
2018-11-14T18:22:59.138Z,12.30
2018-11-14T18:25:28.317Z,12.40
2018-11-14T18:27:57.494Z,12.30
2018-11-14T18:30:28.322Z,12.20
2018-11-14T18:32:58.461Z,12.10
2018-11-14T18:35:28.021Z,12.10
2018-11-14T18:37:58.334Z,12.20
2018-11-14T18:40:33.946Z,12.30
2018-11-14T18:43:03.342Z,12.40
2018-11-14T18:45:35.262Z,12.30
2018-11-14T18:48:05.709Z,12.50
2018-11-14T18:50:36.422Z,12.50
2018-11-14T18:53:05.819Z,12.60
2018-11-14T18:55:35.677Z,12.60
2018-11-14T18:58:05.524Z,12.50
2018-11-14T19:00:35.357Z,12.60
2018-11-14T19:03:04.760Z,12.60
2018-11-14T19:05:34.025Z,12.60
2018-11-14T19:08:03.334Z,12.60
2018-11-14T19:10:33.766Z,12.50
2018-11-14T19:13:03.485Z,12.50
2018-11-14T19:15:33.956Z,12.40
2018-11-14T19:18:03.353Z,12.40
2018-11-14T19:20:33.670Z,12.40
2018-11-14T19:23:03.868Z,12.50
2018-11-14T19:25:34.504Z,12.40
2018-11-14T19:28:03.880Z,12.40
2018-11-14T19:30:35.510Z,12.20
2018-11-14T19:33:05.043Z,12.20
2018-11-14T19:35:34.268Z,12.20
2018-11-14T19:38:03.492Z,12.20
2018-11-14T19:40:35.827Z,12.30
2018-11-14T19:43:07.162Z,12.20
2018-11-14T19:45:37.496Z,12.20
2018-11-14T19:48:07.196Z,12.10
2018-11-14T19:50:36.594Z,12.20
2018-11-14T19:53:05.944Z,12.20
2018-11-14T19:55:35.889Z,12.10
2018-11-14T19:58:05.957Z,12.20
2018-11-14T20:00:37.372Z,12.10
2018-11-14T20:03:07.239Z,12.10
2018-11-14T20:05:36.586Z,12.10
2018-11-14T20:08:06.226Z,11.90
2018-11-14T20:10:35.481Z,11.90
2018-11-14T20:13:05.492Z,11.60
2018-11-14T20:15:35.847Z,11.60
2018-11-14T20:18:05.504Z,11.50
2018-11-14T20:20:36.034Z,11.50
2018-11-14T20:23:05.510Z,11.50
2018-11-14T20:25:35.017Z,11.40
2018-11-14T20:28:04.192Z,11.20
2018-11-14T20:30:35.699Z,11.10
2018-11-14T20:33:07.275Z,11.10
2018-11-14T20:35:36.585Z,11.00
2018-11-14T20:38:06.030Z,10.80
2018-11-14T20:40:38.098Z,10.80
2018-11-14T20:43:07.860Z,10.70
2018-11-14T20:45:37.153Z,10.60
2018-11-14T20:48:06.598Z,10.60
2018-11-14T20:50:35.832Z,10.50
2018-11-14T20:53:05.587Z,10.40
2018-11-14T20:55:35.517Z,10.40
2018-11-14T20:58:04.891Z,10.10
2018-11-14T21:00:36.286Z,10.00
2018-11-14T21:03:06.330Z,9.90
2018-11-14T21:05:35.659Z,9.90
2018-11-14T21:08:05.099Z,9.90
2018-11-14T21:10:35.200Z,9.90
2018-11-14T21:13:04.825Z,10.00
2018-11-14T21:15:35.525Z,10.00
2018-11-14T21:18:04.972Z,10.00
2018-11-14T21:20:34.273Z,9.90
2018-11-14T21:23:03.556Z,9.90
2018-11-14T21:25:32.728Z,9.90
2018-11-14T21:28:01.898Z,9.90
2018-11-14T21:30:31.621Z,9.80
2018-11-14T21:33:01.332Z,9.90
2018-11-14T21:35:32.360Z,9.80
2018-11-14T21:38:02.995Z,9.90
2018-11-14T21:40:32.958Z,9.80
2018-11-14T21:43:02.197Z,9.70
2018-11-14T21:45:31.624Z,9.70
2018-11-14T21:48:06.021Z,9.50
2018-11-14T21:50:35.435Z,9.60
2018-11-14T21:53:05.139Z,9.60
2018-11-14T21:55:34.340Z,9.70
2018-11-14T21:58:03.722Z,9.70
2018-11-14T22:00:34.938Z,9.80
2018-11-14T22:03:04.457Z,9.80
2018-11-14T22:05:34.271Z,9.90
2018-11-14T22:08:03.533Z,9.70
2018-11-14T22:10:32.872Z,9.80
2018-11-14T22:13:02.468Z,9.70
2018-11-14T22:15:31.967Z,9.70
2018-11-14T22:18:01.282Z,9.60
2018-11-14T22:20:31.009Z,9.60
2018-11-14T22:23:00.182Z,9.50
2018-11-14T22:25:30.189Z,9.50
2018-11-14T22:27:59.424Z,9.50
2018-11-14T22:30:30.958Z,9.30
2018-11-14T22:33:00.093Z,9.20
2018-11-14T22:35:30.715Z,9.20
2018-11-14T22:38:00.123Z,9.20
2018-11-14T22:40:30.654Z,9.20
2018-11-14T22:43:00.312Z,9.20
2018-11-14T22:45:32.035Z,9.10
2018-11-14T22:48:01.306Z,9.10
2018-11-14T22:50:30.498Z,9.10
2018-11-14T22:52:59.788Z,9.30
2018-11-14T22:55:29.024Z,9.30
2018-11-14T22:57:58.117Z,9.30
2018-11-14T23:00:31.902Z,9.30
2018-11-14T23:03:02.469Z,9.40
2018-11-14T23:05:31.893Z,9.40
2018-11-14T23:08:01.575Z,9.40
2018-11-14T23:10:30.802Z,9.40
2018-11-14T23:13:00.096Z,9.30
2018-11-14T23:15:29.327Z,9.40
2018-11-14T23:17:58.498Z,9.30
2018-11-14T23:20:27.846Z,9.30
2018-11-14T23:22:57.027Z,9.30
2018-11-14T23:25:26.250Z,9.40
2018-11-14T23:27:56.092Z,9.40
2018-11-14T23:30:26.471Z,9.40
2018-11-14T23:32:56.714Z,9.40
2018-11-14T23:35:27.057Z,9.40
2018-11-14T23:37:57.607Z,9.20
2018-11-14T23:40:27.402Z,9.20
2018-11-14T23:42:56.695Z,9.10
2018-11-14T23:45:26.704Z,9.10
2018-11-14T23:47:55.938Z,9.10
2018-11-14T23:50:28.268Z,9.00
2018-11-14T23:52:58.372Z,9.00
2018-11-14T23:55:28.476Z,8.90
2018-11-14T23:57:58.120Z,9.00
